DLH18 EKBI-EDDH
Flight info
| Callsign | DLH18 |
|---|---|
| Flight time | N/A |
| Altitude | 22000 |
| Route | ALS M852 ALASA/N0416F210 M852 EKERN T905 BOGMU BOGMU5A |
| Aircraft | E195/M-SDE3GILORVW/S |
Departure
| Time | 2026-04-30 19:35 |
|---|---|
| Airport | Billund Airport (EKBI) |
Arrival
| Time | N/A |
|---|---|
| Airport | Hamburg Helmut Schmidt Airport (EDDH) |
| Time | Latitude | Longitude | Altitude | Speed | Heading |
|---|---|---|---|---|---|
| 2026-04-30 18:06 | 55.74540 | 9.15077 | 235 ft | 0 kts | 357° |
| 2026-04-30 19:25 | 55.74519 | 9.15079 | 234 ft | 2 kts | 357° |
| 2026-04-30 19:26 | 55.74489 | 9.15081 | 234 ft | 2 kts | 356° |
| 2026-04-30 19:26 | 55.74465 | 9.15084 | 233 ft | 1 kts | 341° |
| 2026-04-30 19:26 | 55.74456 | 9.15100 | 233 ft | 1 kts | 282° |
| 2026-04-30 19:27 | 55.74456 | 9.15120 | 233 ft | 0 kts | 266° |
| 2026-04-30 19:29 | 55.74456 | 9.15093 | 233 ft | 6 kts | 266° |
| 2026-04-30 19:30 | 55.74284 | 9.14990 | 230 ft | 13 kts | 177° |
| 2026-04-30 19:30 | 55.74201 | 9.15251 | 228 ft | 16 kts | 87° |
| 2026-04-30 19:31 | 55.74214 | 9.15670 | 228 ft | 17 kts | 86° |
| 2026-04-30 19:31 | 55.74222 | 9.15890 | 229 ft | 17 kts | 86° |
| 2026-04-30 19:31 | 55.74230 | 9.16305 | 234 ft | 15 kts | 85° |
| 2026-04-30 19:32 | 55.74239 | 9.16486 | 238 ft | 13 kts | 85° |
| 2026-04-30 19:32 | 55.74246 | 9.16646 | 241 ft | 12 kts | 86° |
| 2026-04-30 19:32 | 55.74250 | 9.16801 | 245 ft | 12 kts | 87° |
| 2026-04-30 19:32 | 55.74254 | 9.16967 | 246 ft | 14 kts | 87° |
| 2026-04-30 19:33 | 55.74260 | 9.17167 | 247 ft | 18 kts | 85° |
| 2026-04-30 19:33 | 55.74267 | 9.17424 | 246 ft | 23 kts | 88° |
| 2026-04-30 19:33 | 55.74277 | 9.17741 | 246 ft | 26 kts | 86° |
| 2026-04-30 19:33 | 55.74284 | 9.18001 | 249 ft | 18 kts | 95° |
| 2026-04-30 19:34 | 55.74199 | 9.18145 | 248 ft | 19 kts | 176° |
| 2026-04-30 19:34 | 55.74126 | 9.18129 | 247 ft | 7 kts | 242° |
| 2026-04-30 19:34 | 55.74118 | 9.17941 | 245 ft | 39 kts | 266° |
| 2026-04-30 19:35 | 55.74091 | 9.17046 | 242 ft | 103 kts | 269° |
| 2026-04-30 19:35 | 55.74041 | 9.15440 | 228 ft | 155 kts | 267° |
| 2026-04-30 19:35 | 55.73974 | 9.13364 | 410 ft | 177 kts | 267° |
| 2026-04-30 19:35 | 55.73911 | 9.11161 | 995 ft | 182 kts | 268° |
| 2026-04-30 19:36 | 55.74068 | 9.08925 | 1537 ft | 192 kts | 295° |
| 2026-04-30 19:36 | 55.74906 | 9.07076 | 2144 ft | 204 kts | 320° |
| 2026-04-30 19:36 | 55.76832 | 9.03294 | 3575 ft | 220 kts | 283° |
| 2026-04-30 19:37 | 55.76655 | 9.00633 | 4196 ft | 230 kts | 241° |
| 2026-04-30 19:37 | 55.75479 | 8.98715 | 4765 ft | 242 kts | 200° |
| 2026-04-30 19:37 | 55.73765 | 8.98469 | 5145 ft | 262 kts | 162° |
| 2026-04-30 19:37 | 55.72229 | 9.00215 | 5842 ft | 270 kts | 126° |
| 2026-04-30 19:38 | 55.71308 | 9.03055 | 6774 ft | 271 kts | 116° |
| 2026-04-30 19:38 | 55.70451 | 9.06002 | 7709 ft | 270 kts | 116° |
| 2026-04-30 19:38 | 55.69585 | 9.08892 | 8571 ft | 272 kts | 121° |
| 2026-04-30 19:38 | 55.68407 | 9.11500 | 9349 ft | 277 kts | 134° |
| 2026-04-30 19:39 | 55.66966 | 9.13764 | 10085 ft | 282 kts | 139° |
| 2026-04-30 19:39 | 55.65390 | 9.15862 | 10811 ft | 286 kts | 142° |
| 2026-04-30 19:39 | 55.63747 | 9.17874 | 11435 ft | 294 kts | 144° |
| 2026-04-30 19:39 | 55.62032 | 9.19889 | 11980 ft | 304 kts | 144° |
| 2026-04-30 19:40 | 55.60225 | 9.21969 | 12510 ft | 314 kts | 144° |
| 2026-04-30 19:40 | 55.58373 | 9.24080 | 13082 ft | 323 kts | 144° |
| 2026-04-30 19:40 | 55.56492 | 9.26212 | 13731 ft | 327 kts | 144° |
| 2026-04-30 19:40 | 55.54570 | 9.28388 | 14433 ft | 331 kts | 144° |
| 2026-04-30 19:41 | 55.52638 | 9.30570 | 15111 ft | 334 kts | 144° |
| 2026-04-30 19:41 | 55.50665 | 9.32795 | 15778 ft | 338 kts | 144° |
| 2026-04-30 19:41 | 55.48689 | 9.35020 | 16426 ft | 343 kts | 144° |
| 2026-04-30 19:41 | 55.46692 | 9.37267 | 17071 ft | 347 kts | 144° |
| 2026-04-30 19:42 | 55.44666 | 9.39542 | 17721 ft | 350 kts | 144° |
| 2026-04-30 19:42 | 55.42607 | 9.41853 | 18363 ft | 354 kts | 144° |
| 2026-04-30 19:42 | 55.40520 | 9.44192 | 19001 ft | 358 kts | 144° |
| 2026-04-30 19:42 | 55.38410 | 9.46554 | 19605 ft | 362 kts | 144° |
| 2026-04-30 19:43 | 55.36288 | 9.48926 | 20201 ft | 366 kts | 144° |
| 2026-04-30 19:43 | 55.34176 | 9.51284 | 20411 ft | 366 kts | 144° |
| 2026-04-30 19:43 | 55.31989 | 9.53723 | 20488 ft | 376 kts | 144° |
| 2026-04-30 19:44 | 55.27555 | 9.58656 | 21695 ft | 383 kts | 144° |
| 2026-04-30 19:44 | 55.25323 | 9.61134 | 22339 ft | 382 kts | 144° |
| 2026-04-30 19:44 | 55.23059 | 9.63646 | 22419 ft | 394 kts | 144° |
| 2026-04-30 19:44 | 55.20681 | 9.66280 | 22444 ft | 409 kts | 146° |
| 2026-04-30 19:45 | 55.18269 | 9.68947 | 22436 ft | 411 kts | 146° |
| 2026-04-30 19:45 | 55.15892 | 9.71571 | 22431 ft | 410 kts | 146° |
| 2026-04-30 19:45 | 55.13465 | 9.74246 | 22435 ft | 410 kts | 146° |
| 2026-04-30 19:45 | 55.11060 | 9.76894 | 22430 ft | 409 kts | 146° |
| 2026-04-30 19:46 | 55.08661 | 9.79532 | 22430 ft | 409 kts | 146° |
| 2026-04-30 19:46 | 55.06250 | 9.82178 | 22435 ft | 410 kts | 145° |
| 2026-04-30 19:46 | 55.03865 | 9.84793 | 22434 ft | 410 kts | 145° |
| 2026-04-30 19:46 | 55.01454 | 9.87433 | 22436 ft | 410 kts | 146° |
| 2026-04-30 19:47 | 54.99050 | 9.90061 | 22435 ft | 410 kts | 145° |
| 2026-04-30 19:47 | 54.97451 | 9.91807 | 22434 ft | 411 kts | 145° |
| 2026-04-30 19:47 | 54.94214 | 9.95337 | 22433 ft | 410 kts | 145° |
| 2026-04-30 19:47 | 54.91727 | 9.97711 | 22422 ft | 414 kts | 159° |
| 2026-04-30 19:48 | 54.88886 | 9.98489 | 22469 ft | 419 kts | 181° |
| 2026-04-30 19:48 | 54.85994 | 9.97799 | 22473 ft | 421 kts | 189° |
| 2026-04-30 19:48 | 54.83129 | 9.96895 | 22445 ft | 420 kts | 189° |
| 2026-04-30 19:48 | 54.80260 | 9.95967 | 22433 ft | 419 kts | 189° |
| 2026-04-30 19:49 | 54.77448 | 9.95050 | 22026 ft | 413 kts | 189° |
| 2026-04-30 19:49 | 54.71957 | 9.93258 | 21195 ft | 397 kts | 189° |
| 2026-04-30 19:49 | 54.69236 | 9.92372 | 20790 ft | 394 kts | 189° |
| 2026-04-30 19:50 | 54.66580 | 9.91508 | 20400 ft | 392 kts | 189° |
| 2026-04-30 19:50 | 54.63917 | 9.90649 | 20010 ft | 391 kts | 189° |
| 2026-04-30 19:50 | 54.61229 | 9.89787 | 19603 ft | 389 kts | 189° |
| 2026-04-30 19:50 | 54.58599 | 9.88946 | 19205 ft | 387 kts | 188° |
| 2026-04-30 19:51 | 54.55984 | 9.88111 | 18799 ft | 384 kts | 188° |
| 2026-04-30 19:51 | 54.53377 | 9.87279 | 18414 ft | 381 kts | 188° |
| 2026-04-30 19:51 | 54.50749 | 9.86991 | 17992 ft | 373 kts | 167° |
| 2026-04-30 19:51 | 54.48336 | 9.88336 | 17633 ft | 365 kts | 153° |
| 2026-04-30 19:52 | 54.46054 | 9.90124 | 17247 ft | 363 kts | 152° |
| 2026-04-30 19:52 | 54.43771 | 9.91959 | 16831 ft | 361 kts | 151° |
| 2026-04-30 19:52 | 54.41534 | 9.93772 | 16425 ft | 358 kts | 151° |
| 2026-04-30 19:52 | 54.39297 | 9.95589 | 16046 ft | 355 kts | 151° |
| 2026-04-30 19:53 | 54.37066 | 9.97402 | 15645 ft | 352 kts | 151° |
| 2026-04-30 19:53 | 54.34889 | 9.99169 | 15246 ft | 349 kts | 151° |
| 2026-04-30 19:53 | 54.32715 | 10.00932 | 14809 ft | 347 kts | 151° |
| 2026-04-30 19:53 | 54.30534 | 10.02698 | 14488 ft | 343 kts | 151° |
| 2026-04-30 19:54 | 54.28385 | 10.04438 | 14456 ft | 342 kts | 151° |
| 2026-04-30 19:54 | 54.26224 | 10.06186 | 14428 ft | 351 kts | 151° |
| 2026-04-30 19:54 | 54.24018 | 10.07966 | 14463 ft | 357 kts | 151° |
| 2026-04-30 19:54 | 54.21748 | 10.09796 | 14442 ft | 357 kts | 151° |
| 2026-04-30 19:55 | 54.19529 | 10.11583 | 14424 ft | 356 kts | 151° |
| 2026-04-30 19:55 | 54.17274 | 10.13396 | 14423 ft | 356 kts | 151° |
| 2026-04-30 19:55 | 54.15058 | 10.15192 | 14425 ft | 356 kts | 148° |
| 2026-04-30 19:55 | 54.12865 | 10.17172 | 14423 ft | 355 kts | 149° |
| 2026-04-30 19:56 | 54.10651 | 10.19000 | 14422 ft | 356 kts | 151° |
| 2026-04-30 19:56 | 54.08454 | 10.20738 | 14408 ft | 342 kts | 151° |
| 2026-04-30 19:56 | 54.06344 | 10.22379 | 14394 ft | 322 kts | 151° |
| 2026-04-30 19:56 | 54.04393 | 10.23887 | 14392 ft | 302 kts | 151° |
| 2026-04-30 19:57 | 54.02525 | 10.25326 | 14391 ft | 285 kts | 150° |
| 2026-04-30 19:57 | 54.00742 | 10.26700 | 14404 ft | 280 kts | 150° |
| 2026-04-30 19:57 | 53.98961 | 10.28072 | 14422 ft | 283 kts | 150° |
| 2026-04-30 19:57 | 53.97095 | 10.29135 | 14434 ft | 290 kts | 163° |
| 2026-04-30 19:58 | 53.95140 | 10.29920 | 14423 ft | 288 kts | 150° |
| 2026-04-30 19:58 | 53.93655 | 10.31964 | 14470 ft | 270 kts | 117° |
| 2026-04-30 19:58 | 53.93154 | 10.34827 | 14454 ft | 243 kts | 81° |
| 2026-04-30 19:58 | 53.93761 | 10.37340 | 14479 ft | 236 kts | 45° |
| 2026-04-30 19:59 | 53.95217 | 10.38676 | 14500 ft | 245 kts | 15° |